sensor_id;sensor_type;location;lat;lon;timestamp;noise_LAeq;noise_LA_min;noise_LA_max;noise_LA01;noise_LA95
67320;Laerm;57665;51.436;5.978;2022-12-07T00:00:06;36.67;35.85;37.47;;
67320;Laerm;57665;51.436;5.978;2022-12-07T00:00:17;36.72;35.87;37.61;;
67320;Laerm;57665;51.436;5.978;2022-12-07T00:00:27;36.65;35.63;37.54;;
67320;Laerm;57665;51.436;5.978;2022-12-07T00:00:37;36.73;35.87;37.62;;
67320;Laerm;57665;51.436;5.978;2022-12-07T00:00:47;36.65;35.72;37.50;;
67320;Laerm;57665;51.436;5.978;2022-12-07T00:01:04;36.66;35.78;37.53;;
67320;Laerm;57665;51.436;5.978;2022-12-07T00:01:25;36.85;35.70;40.36;;
67320;Laerm;57665;51.436;5.978;2022-12-07T00:01:37;36.63;35.59;37.45;;
67320;Laerm;57665;51.436;5.978;2022-12-07T00:01:50;36.62;35.81;37.34;;
67320;Laerm;57665;51.436;5.978;2022-12-07T00:02:00;36.63;35.66;37.81;;
67320;Laerm;57665;51.436;5.978;2022-12-07T00:02:11;36.66;35.50;37.48;;
67320;Laerm;57665;51.436;5.978;2022-12-07T00:02:21;36.65;35.69;37.72;;
67320;Laerm;57665;51.436;5.978;2022-12-07T00:02:32;36.66;35.55;37.51;;
67320;Laerm;57665;51.436;5.978;2022-12-07T00:02:43;36.69;35.69;37.61;;
67320;Laerm;57665;51.436;5.978;2022-12-07T00:02:53;36.66;35.80;37.65;;
67320;Laerm;57665;51.436;5.978;2022-12-07T00:03:03;37.37;35.61;41.12;;
67320;Laerm;57665;51.436;5.978;2022-12-07T00:03:13;36.74;35.86;38.07;;
67320;Laerm;57665;51.436;5.978;2022-12-07T00:03:24;36.65;35.70;37.42;;
67320;Laerm;57665;51.436;5.978;2022-12-07T00:03:34;36.67;35.50;37.60;;
67320;Laerm;57665;51.436;5.978;2022-12-07T00:03:45;36.70;35.32;37.46;;
67320;Laerm;57665;51.436;5.978;2022-12-07T00:03:57;36.63;35.61;37.47;;
67320;Laerm;57665;51.436;5.978;2022-12-07T00:04:15;36.68;35.58;37.75;;
67320;Laerm;57665;51.436;5.978;2022-12-07T00:04:25;36.68;35.39;37.70;;
67320;Laerm;57665;51.436;5.978;2022-12-07T00:04:36;36.64;35.64;37.57;;
67320;Laerm;57665;51.436;5.978;2022-12-07T00:04:46;36.63;35.75;37.37;;
67320;Laerm;57665;51.436;5.978;2022-12-07T00:04:58;36.67;35.50;37.43;;
67320;Laerm;57665;51.436;5.978;2022-12-07T00:05:08;36.68;35.55;37.50;;
67320;Laerm;57665;51.436;5.978;2022-12-07T00:05:18;36.65;35.52;37.47;;
67320;Laerm;57665;51.436;5.978;2022-12-07T00:05:29;36.68;35.55;37.56;;
67320;Laerm;57665;51.436;5.978;2022-12-07T00:05:39;36.89;35.89;49.56;;
67320;Laerm;57665;51.436;5.978;2022-12-07T00:05:50;36.67;35.66;37.36;;
67320;Laerm;57665;51.436;5.978;2022-12-07T00:06:00;36.62;35.91;37.41;;
67320;Laerm;57665;51.436;5.978;2022-12-07T00:06:12;36.62;35.54;37.49;;
67320;Laerm;57665;51.436;5.978;2022-12-07T00:06:23;36.68;35.73;37.59;;
67320;Laerm;57665;51.436;5.978;2022-12-07T00:06:33;36.70;35.48;37.45;;
67320;Laerm;57665;51.436;5.978;2022-12-07T00:06:45;36.69;35.68;37.56;;
67320;Laerm;57665;51.436;5.978;2022-12-07T00:06:56;36.63;35.75;37.39;;
67320;Laerm;57665;51.436;5.978;2022-12-07T00:07:06;36.60;35.73;37.55;;
67320;Laerm;57665;51.436;5.978;2022-12-07T00:07:16;36.65;35.77;37.58;;
67320;Laerm;57665;51.436;5.978;2022-12-07T00:07:26;36.66;35.81;37.75;;
67320;Laerm;57665;51.436;5.978;2022-12-07T00:07:36;36.64;35.85;37.32;;
67320;Laerm;57665;51.436;5.978;2022-12-07T00:07:47;36.64;35.55;37.43;;
67320;Laerm;57665;51.436;5.978;2022-12-07T00:07:57;36.66;35.63;37.53;;
67320;Laerm;57665;51.436;5.978;2022-12-07T00:08:07;36.60;35.53;37.69;;
67320;Laerm;57665;51.436;5.978;2022-12-07T00:08:17;36.65;35.65;37.68;;
67320;Laerm;57665;51.436;5.978;2022-12-07T00:08:27;36.66;35.78;37.44;;
67320;Laerm;57665;51.436;5.978;2022-12-07T00:08:38;36.67;35.69;37.48;;
67320;Laerm;57665;51.436;5.978;2022-12-07T00:08:48;36.89;35.74;38.21;;
67320;Laerm;57665;51.436;5.978;2022-12-07T00:08:58;38.84;36.36;43.96;;
67320;Laerm;57665;51.436;5.978;2022-12-07T00:09:13;36.78;35.77;37.75;;
67320;Laerm;57665;51.436;5.978;2022-12-07T00:09:23;36.65;35.77;37.57;;
67320;Laerm;57665;51.436;5.978;2022-12-07T00:09:33;36.72;35.78;37.60;;
67320;Laerm;57665;51.436;5.978;2022-12-07T00:09:44;36.60;35.73;37.41;;
67320;Laerm;57665;51.436;5.978;2022-12-07T00:09:54;36.63;35.59;37.71;;
67320;Laerm;57665;51.436;5.978;2022-12-07T00:10:04;36.64;35.35;37.66;;
67320;Laerm;57665;51.436;5.978;2022-12-07T00:10:15;36.66;35.73;37.42;;
67320;Laerm;57665;51.436;5.978;2022-12-07T00:10:25;36.66;35.71;37.60;;
67320;Laerm;57665;51.436;5.978;2022-12-07T00:10:35;36.67;35.85;37.53;;
67320;Laerm;57665;51.436;5.978;2022-12-07T00:10:46;36.66;35.75;37.54;;
67320;Laerm;57665;51.436;5.978;2022-12-07T00:11:00;36.63;35.74;37.53;;
67320;Laerm;57665;51.436;5.978;2022-12-07T00:11:12;36.65;35.64;37.60;;
67320;Laerm;57665;51.436;5.978;2022-12-07T00:11:23;36.64;35.52;37.52;;
67320;Laerm;57665;51.436;5.978;2022-12-07T00:11:33;36.61;35.73;37.41;;
67320;Laerm;57665;51.436;5.978;2022-12-07T00:11:44;36.65;35.65;37.49;;
67320;Laerm;57665;51.436;5.978;2022-12-07T00:11:54;36.63;35.78;37.69;;
67320;Laerm;57665;51.436;5.978;2022-12-07T00:12:05;36.65;35.64;37.52;;
67320;Laerm;57665;51.436;5.978;2022-12-07T00:12:15;36.72;35.42;37.65;;
67320;Laerm;57665;51.436;5.978;2022-12-07T00:12:25;36.68;35.42;37.88;;
67320;Laerm;57665;51.436;5.978;2022-12-07T00:12:35;36.67;35.73;37.68;;
67320;Laerm;57665;51.436;5.978;2022-12-07T00:12:45;36.63;35.32;37.33;;
67320;Laerm;57665;51.436;5.978;2022-12-07T00:12:56;36.64;35.65;37.57;;
67320;Laerm;57665;51.436;5.978;2022-12-07T00:13:06;36.62;35.17;37.80;;
67320;Laerm;57665;51.436;5.978;2022-12-07T00:13:16;36.66;35.60;37.48;;
67320;Laerm;57665;51.436;5.978;2022-12-07T00:13:26;36.71;35.96;37.60;;
67320;Laerm;57665;51.436;5.978;2022-12-07T00:13:37;36.67;35.72;37.45;;
67320;Laerm;57665;51.436;5.978;2022-12-07T00:13:51;36.68;35.78;37.41;;
67320;Laerm;57665;51.436;5.978;2022-12-07T00:14:02;36.68;35.79;37.70;;
67320;Laerm;57665;51.436;5.978;2022-12-07T00:14:14;36.68;35.80;37.56;;
67320;Laerm;57665;51.436;5.978;2022-12-07T00:14:24;36.63;35.55;37.57;;
67320;Laerm;57665;51.436;5.978;2022-12-07T00:14:34;36.65;35.72;37.40;;
67320;Laerm;57665;51.436;5.978;2022-12-07T00:14:44;36.67;35.64;37.52;;
67320;Laerm;57665;51.436;5.978;2022-12-07T00:14:55;36.66;35.72;37.57;;
67320;Laerm;57665;51.436;5.978;2022-12-07T00:15:05;36.65;35.81;37.41;;
67320;Laerm;57665;51.436;5.978;2022-12-07T00:15:15;36.64;35.62;37.53;;
67320;Laerm;57665;51.436;5.978;2022-12-07T00:15:26;36.67;35.77;37.43;;
67320;Laerm;57665;51.436;5.978;2022-12-07T00:15:36;36.64;35.54;37.97;;
67320;Laerm;57665;51.436;5.978;2022-12-07T00:15:46;36.68;35.55;37.45;;
67320;Laerm;57665;51.436;5.978;2022-12-07T00:15:59;36.71;35.75;37.48;;
67320;Laerm;57665;51.436;5.978;2022-12-07T00:16:14;36.68;35.87;37.52;;
67320;Laerm;57665;51.436;5.978;2022-12-07T00:16:26;36.70;35.65;37.65;;
67320;Laerm;57665;51.436;5.978;2022-12-07T00:16:36;36.68;35.60;37.65;;
67320;Laerm;57665;51.436;5.978;2022-12-07T00:16:48;36.68;35.80;37.79;;
67320;Laerm;57665;51.436;5.978;2022-12-07T00:16:58;36.67;35.73;37.85;;
67320;Laerm;57665;51.436;5.978;2022-12-07T00:17:08;36.65;35.61;37.48;;
67320;Laerm;57665;51.436;5.978;2022-12-07T00:17:19;36.70;35.45;37.69;;
67320;Laerm;57665;51.436;5.978;2022-12-07T00:17:29;36.69;35.78;37.51;;
67320;Laerm;57665;51.436;5.978;2022-12-07T00:17:39;36.65;35.82;37.54;;
67320;Laerm;57665;51.436;5.978;2022-12-07T00:17:49;36.64;35.69;37.93;;
67320;Laerm;57665;51.436;5.978;2022-12-07T00:17:59;36.65;35.67;37.74;;
67320;Laerm;57665;51.436;5.978;2022-12-07T00:18:10;36.66;35.85;38.39;;
67320;Laerm;57665;51.436;5.978;2022-12-07T00:18:20;36.67;35.73;37.48;;
67320;Laerm;57665;51.436;5.978;2022-12-07T00:18:30;36.67;35.84;37.56;;
67320;Laerm;57665;51.436;5.978;2022-12-07T00:18:41;36.64;35.71;37.61;;
67320;Laerm;57665;51.436;5.978;2022-12-07T00:18:51;36.67;35.75;37.61;;
67320;Laerm;57665;51.436;5.978;2022-12-07T00:19:02;36.68;35.76;37.61;;
67320;Laerm;57665;51.436;5.978;2022-12-07T00:19:13;36.64;35.72;37.76;;
67320;Laerm;57665;51.436;5.978;2022-12-07T00:19:23;36.69;35.65;37.55;;
67320;Laerm;57665;51.436;5.978;2022-12-07T00:19:34;36.67;35.83;37.60;;
67320;Laerm;57665;51.436;5.978;2022-12-07T00:19:44;36.68;35.78;37.49;;
67320;Laerm;57665;51.436;5.978;2022-12-07T00:19:54;36.65;35.61;37.52;;
67320;Laerm;57665;51.436;5.978;2022-12-07T00:20:04;36.64;35.40;37.39;;
67320;Laerm;57665;51.436;5.978;2022-12-07T00:20:15;36.68;35.64;37.82;;
67320;Laerm;57665;51.436;5.978;2022-12-07T00:20:25;36.64;35.89;37.35;;
67320;Laerm;57665;51.436;5.978;2022-12-07T00:20:35;36.65;35.76;37.56;;
67320;Laerm;57665;51.436;5.978;2022-12-07T00:20:46;36.67;35.68;37.54;;
67320;Laerm;57665;51.436;5.978;2022-12-07T00:21:00;36.66;35.71;37.58;;
67320;Laerm;57665;51.436;5.978;2022-12-07T00:21:21;36.68;35.69;37.48;;
67320;Laerm;57665;51.436;5.978;2022-12-07T00:21:32;36.65;35.42;37.58;;
67320;Laerm;57665;51.436;5.978;2022-12-07T00:21:43;36.68;35.66;37.60;;
67320;Laerm;57665;51.436;5.978;2022-12-07T00:21:53;36.71;35.76;37.49;;
67320;Laerm;57665;51.436;5.978;2022-12-07T00:22:03;36.68;35.54;37.57;;
67320;Laerm;57665;51.436;5.978;2022-12-07T00:22:13;36.70;35.65;37.55;;
67320;Laerm;57665;51.436;5.978;2022-12-07T00:22:24;36.66;35.65;38.07;;
67320;Laerm;57665;51.436;5.978;2022-12-07T00:22:34;36.66;35.49;37.65;;
67320;Laerm;57665;51.436;5.978;2022-12-07T00:22:44;36.65;35.71;37.61;;
67320;Laerm;57665;51.436;5.978;2022-12-07T00:22:54;36.68;35.69;37.74;;
67320;Laerm;57665;51.436;5.978;2022-12-07T00:23:05;36.67;35.63;37.51;;
67320;Laerm;57665;51.436;5.978;2022-12-07T00:23:15;36.67;35.74;37.54;;
67320;Laerm;57665;51.436;5.978;2022-12-07T00:23:25;36.70;35.74;37.84;;
67320;Laerm;57665;51.436;5.978;2022-12-07T00:23:35;36.68;35.71;37.54;;
67320;Laerm;57665;51.436;5.978;2022-12-07T00:23:46;36.66;35.72;37.45;;
67320;Laerm;57665;51.436;5.978;2022-12-07T00:23:57;36.69;35.74;37.69;;
67320;Laerm;57665;51.436;5.978;2022-12-07T00:24:07;36.69;35.89;37.72;;
67320;Laerm;57665;51.436;5.978;2022-12-07T00:24:17;36.67;35.86;37.47;;
67320;Laerm;57665;51.436;5.978;2022-12-07T00:24:27;36.67;35.83;37.53;;
67320;Laerm;57665;51.436;5.978;2022-12-07T00:24:38;36.68;35.78;37.64;;
67320;Laerm;57665;51.436;5.978;2022-12-07T00:24:48;36.71;35.53;37.73;;
67320;Laerm;57665;51.436;5.978;2022-12-07T00:24:58;36.68;35.67;37.58;;
67320;Laerm;57665;51.436;5.978;2022-12-07T00:25:08;36.71;35.60;37.65;;
67320;Laerm;57665;51.436;5.978;2022-12-07T00:25:19;36.71;35.74;37.48;;
67320;Laerm;57665;51.436;5.978;2022-12-07T00:25:29;36.67;35.87;37.79;;
67320;Laerm;57665;51.436;5.978;2022-12-07T00:25:40;36.71;35.72;37.84;;
67320;Laerm;57665;51.436;5.978;2022-12-07T00:25:50;36.69;35.63;37.64;;
67320;Laerm;57665;51.436;5.978;2022-12-07T00:26:08;36.66;35.72;37.54;;
67320;Laerm;57665;51.436;5.978;2022-12-07T00:26:19;36.68;35.23;37.79;;
67320;Laerm;57665;51.436;5.978;2022-12-07T00:26:30;36.65;35.58;37.48;;
67320;Laerm;57665;51.436;5.978;2022-12-07T00:26:41;36.69;35.84;37.43;;
67320;Laerm;57665;51.436;5.978;2022-12-07T00:26:52;36.66;35.76;37.56;;
67320;Laerm;57665;51.436;5.978;2022-12-07T00:27:02;36.66;35.87;37.49;;
67320;Laerm;57665;51.436;5.978;2022-12-07T00:27:12;36.68;35.72;37.55;;
67320;Laerm;57665;51.436;5.978;2022-12-07T00:27:22;36.72;35.64;37.68;;
67320;Laerm;57665;51.436;5.978;2022-12-07T00:27:32;36.69;35.68;37.63;;
67320;Laerm;57665;51.436;5.978;2022-12-07T00:27:43;36.66;35.71;37.42;;
67320;Laerm;57665;51.436;5.978;2022-12-07T00:27:53;36.69;35.58;39.85;;
67320;Laerm;57665;51.436;5.978;2022-12-07T00:28:06;36.67;35.62;37.57;;
67320;Laerm;57665;51.436;5.978;2022-12-07T00:28:17;36.65;35.68;37.66;;
67320;Laerm;57665;51.436;5.978;2022-12-07T00:28:28;36.68;35.76;37.50;;
67320;Laerm;57665;51.436;5.978;2022-12-07T00:28:38;36.70;35.74;37.62;;
67320;Laerm;57665;51.436;5.978;2022-12-07T00:28:53;36.69;35.72;37.46;;
67320;Laerm;57665;51.436;5.978;2022-12-07T00:29:05;36.70;35.68;38.45;;
67320;Laerm;57665;51.436;5.978;2022-12-07T00:29:17;36.69;35.64;37.55;;
67320;Laerm;57665;51.436;5.978;2022-12-07T00:29:28;36.70;35.79;37.50;;
67320;Laerm;57665;51.436;5.978;2022-12-07T00:29:38;36.69;35.75;37.60;;
67320;Laerm;57665;51.436;5.978;2022-12-07T00:29:48;36.79;35.74;47.14;;
67320;Laerm;57665;51.436;5.978;2022-12-07T00:29:58;36.66;35.78;37.49;;
67320;Laerm;57665;51.436;5.978;2022-12-07T00:30:09;36.67;35.91;37.54;;
67320;Laerm;57665;51.436;5.978;2022-12-07T00:30:19;36.67;35.61;37.65;;
67320;Laerm;57665;51.436;5.978;2022-12-07T00:30:29;36.67;35.69;37.43;;
67320;Laerm;57665;51.436;5.978;2022-12-07T00:30:39;36.66;35.73;37.59;;
67320;Laerm;57665;51.436;5.978;2022-12-07T00:30:50;36.70;35.88;37.65;;
67320;Laerm;57665;51.436;5.978;2022-12-07T00:31:07;36.72;35.49;37.70;;
67320;Laerm;57665;51.436;5.978;2022-12-07T00:31:19;36.70;35.73;37.69;;
67320;Laerm;57665;51.436;5.978;2022-12-07T00:31:31;36.67;35.63;37.62;;
67320;Laerm;57665;51.436;5.978;2022-12-07T00:31:43;36.69;35.54;37.61;;
67320;Laerm;57665;51.436;5.978;2022-12-07T00:31:53;36.68;35.64;37.75;;
67320;Laerm;57665;51.436;5.978;2022-12-07T00:32:03;36.66;35.45;37.70;;
67320;Laerm;57665;51.436;5.978;2022-12-07T00:32:13;36.84;35.81;39.28;;
67320;Laerm;57665;51.436;5.978;2022-12-07T00:32:24;36.68;35.57;37.54;;
67320;Laerm;57665;51.436;5.978;2022-12-07T00:32:34;36.63;35.62;37.75;;
67320;Laerm;57665;51.436;5.978;2022-12-07T00:32:44;36.67;35.82;37.77;;
67320;Laerm;57665;51.436;5.978;2022-12-07T00:32:54;36.72;35.66;37.52;;
67320;Laerm;57665;51.436;5.978;2022-12-07T00:33:04;36.69;35.85;37.72;;
67320;Laerm;57665;51.436;5.978;2022-12-07T00:33:15;36.68;35.89;37.96;;
67320;Laerm;57665;51.436;5.978;2022-12-07T00:33:25;36.67;35.81;37.56;;
67320;Laerm;57665;51.436;5.978;2022-12-07T00:33:36;36.71;35.51;37.66;;
67320;Laerm;57665;51.436;5.978;2022-12-07T00:33:46;36.69;35.79;37.60;;
67320;Laerm;57665;51.436;5.978;2022-12-07T00:33:57;36.74;35.63;38.78;;
67320;Laerm;57665;51.436;5.978;2022-12-07T00:34:09;36.70;35.87;37.89;;
67320;Laerm;57665;51.436;5.978;2022-12-07T00:34:21;36.69;35.59;37.84;;
67320;Laerm;57665;51.436;5.978;2022-12-07T00:34:31;36.67;35.77;37.50;;
67320;Laerm;57665;51.436;5.978;2022-12-07T00:34:42;36.70;35.83;37.56;;
67320;Laerm;57665;51.436;5.978;2022-12-07T00:34:52;36.71;35.86;37.80;;
67320;Laerm;57665;51.436;5.978;2022-12-07T00:35:02;36.75;35.86;37.74;;
67320;Laerm;57665;51.436;5.978;2022-12-07T00:35:13;36.72;35.83;37.69;;
67320;Laerm;57665;51.436;5.978;2022-12-07T00:35:23;36.72;35.58;37.63;;
67320;Laerm;57665;51.436;5.978;2022-12-07T00:35:33;36.69;35.61;37.63;;
67320;Laerm;57665;51.436;5.978;2022-12-07T00:35:43;36.69;35.66;37.59;;
67320;Laerm;57665;51.436;5.978;2022-12-07T00:35:57;36.74;35.70;37.75;;
67320;Laerm;57665;51.436;5.978;2022-12-07T00:36:10;36.74;35.52;44.28;;
67320;Laerm;57665;51.436;5.978;2022-12-07T00:36:23;36.70;35.86;37.94;;
67320;Laerm;57665;51.436;5.978;2022-12-07T00:36:34;36.70;35.77;37.76;;
67320;Laerm;57665;51.436;5.978;2022-12-07T00:36:45;36.71;35.83;37.79;;
67320;Laerm;57665;51.436;5.978;2022-12-07T00:36:55;36.66;35.63;37.63;;
67320;Laerm;57665;51.436;5.978;2022-12-07T00:37:05;36.67;35.65;37.42;;
67320;Laerm;57665;51.436;5.978;2022-12-07T00:37:15;36.68;35.85;37.70;;
67320;Laerm;57665;51.436;5.978;2022-12-07T00:37:26;36.69;35.56;37.64;;
67320;Laerm;57665;51.436;5.978;2022-12-07T00:37:36;36.75;35.89;37.54;;
67320;Laerm;57665;51.436;5.978;2022-12-07T00:37:46;36.78;35.59;37.73;;
67320;Laerm;57665;51.436;5.978;2022-12-07T00:37:56;36.76;35.93;37.66;;
67320;Laerm;57665;51.436;5.978;2022-12-07T00:38:06;36.74;35.85;37.63;;
67320;Laerm;57665;51.436;5.978;2022-12-07T00:38:17;36.74;35.79;37.62;;
67320;Laerm;57665;51.436;5.978;2022-12-07T00:38:28;36.71;35.64;37.73;;
67320;Laerm;57665;51.436;5.978;2022-12-07T00:38:39;36.73;35.79;37.50;;
67320;Laerm;57665;51.436;5.978;2022-12-07T00:38:50;36.73;35.79;37.84;;
67320;Laerm;57665;51.436;5.978;2022-12-07T00:39:00;36.70;35.82;37.65;;
67320;Laerm;57665;51.436;5.978;2022-12-07T00:39:10;36.73;35.68;37.51;;
67320;Laerm;57665;51.436;5.978;2022-12-07T00:39:21;36.72;35.83;37.55;;
67320;Laerm;57665;51.436;5.978;2022-12-07T00:39:31;36.76;35.81;37.76;;
67320;Laerm;57665;51.436;5.978;2022-12-07T00:39:41;36.77;35.77;37.59;;
67320;Laerm;57665;51.436;5.978;2022-12-07T00:39:51;36.75;35.52;37.64;;
67320;Laerm;57665;51.436;5.978;2022-12-07T00:40:01;36.79;35.42;37.72;;
67320;Laerm;57665;51.436;5.978;2022-12-07T00:40:12;36.71;35.67;37.57;;
67320;Laerm;57665;51.436;5.978;2022-12-07T00:40:22;36.80;35.94;37.65;;
67320;Laerm;57665;51.436;5.978;2022-12-07T00:40:32;36.77;35.89;38.28;;
67320;Laerm;57665;51.436;5.978;2022-12-07T00:40:42;36.74;35.74;37.57;;
67320;Laerm;57665;51.436;5.978;2022-12-07T00:40:53;36.78;35.61;37.73;;
67320;Laerm;57665;51.436;5.978;2022-12-07T00:41:09;36.73;35.73;37.50;;
67320;Laerm;57665;51.436;5.978;2022-12-07T00:41:21;36.71;35.72;37.59;;
67320;Laerm;57665;51.436;5.978;2022-12-07T00:41:31;36.78;35.81;37.66;;
67320;Laerm;57665;51.436;5.978;2022-12-07T00:41:41;36.75;35.77;37.78;;
67320;Laerm;57665;51.436;5.978;2022-12-07T00:41:52;36.76;35.81;37.57;;
67320;Laerm;57665;51.436;5.978;2022-12-07T00:42:02;36.77;35.81;37.79;;
67320;Laerm;57665;51.436;5.978;2022-12-07T00:42:12;36.75;35.50;37.54;;
67320;Laerm;57665;51.436;5.978;2022-12-07T00:42:22;36.77;35.82;37.88;;
67320;Laerm;57665;51.436;5.978;2022-12-07T00:42:33;36.77;35.80;37.78;;
67320;Laerm;57665;51.436;5.978;2022-12-07T00:42:43;36.76;35.88;37.76;;
67320;Laerm;57665;51.436;5.978;2022-12-07T00:42:53;36.80;35.57;37.56;;
67320;Laerm;57665;51.436;5.978;2022-12-07T00:43:03;36.78;35.81;37.64;;
67320;Laerm;57665;51.436;5.978;2022-12-07T00:43:14;36.80;35.79;37.54;;
67320;Laerm;57665;51.436;5.978;2022-12-07T00:43:24;36.82;35.84;37.95;;
67320;Laerm;57665;51.436;5.978;2022-12-07T00:43:34;36.81;35.89;37.86;;
67320;Laerm;57665;51.436;5.978;2022-12-07T00:43:45;36.78;35.91;37.64;;
67320;Laerm;57665;51.436;5.978;2022-12-07T00:43:56;36.77;35.80;37.87;;
67320;Laerm;57665;51.436;5.978;2022-12-07T00:44:06;36.75;35.96;37.94;;
67320;Laerm;57665;51.436;5.978;2022-12-07T00:44:16;36.76;35.87;37.70;;
67320;Laerm;57665;51.436;5.978;2022-12-07T00:44:27;36.75;35.88;37.99;;
67320;Laerm;57665;51.436;5.978;2022-12-07T00:44:37;36.79;35.83;37.46;;
67320;Laerm;57665;51.436;5.978;2022-12-07T00:44:47;36.71;35.94;37.52;;
67320;Laerm;57665;51.436;5.978;2022-12-07T00:44:57;36.78;35.82;37.68;;
67320;Laerm;57665;51.436;5.978;2022-12-07T00:45:08;36.76;35.79;37.59;;
67320;Laerm;57665;51.436;5.978;2022-12-07T00:45:18;36.77;35.68;37.70;;
67320;Laerm;57665;51.436;5.978;2022-12-07T00:45:28;36.81;35.88;37.62;;
67320;Laerm;57665;51.436;5.978;2022-12-07T00:45:38;36.78;35.69;37.68;;
67320;Laerm;57665;51.436;5.978;2022-12-07T00:45:50;36.77;35.83;37.83;;
67320;Laerm;57665;51.436;5.978;2022-12-07T00:46:00;36.76;35.43;37.69;;
67320;Laerm;57665;51.436;5.978;2022-12-07T00:46:11;36.82;35.96;38.97;;
67320;Laerm;57665;51.436;5.978;2022-12-07T00:46:21;36.78;35.86;37.94;;
67320;Laerm;57665;51.436;5.978;2022-12-07T00:46:32;36.77;35.80;37.83;;
67320;Laerm;57665;51.436;5.978;2022-12-07T00:46:42;36.75;35.57;37.75;;
67320;Laerm;57665;51.436;5.978;2022-12-07T00:46:52;36.80;35.58;37.64;;
67320;Laerm;57665;51.436;5.978;2022-12-07T00:47:02;36.78;35.92;38.03;;
67320;Laerm;57665;51.436;5.978;2022-12-07T00:47:13;36.77;36.02;37.68;;
67320;Laerm;57665;51.436;5.978;2022-12-07T00:47:23;36.86;35.74;38.00;;
67320;Laerm;57665;51.436;5.978;2022-12-07T00:47:33;36.84;36.02;37.79;;
67320;Laerm;57665;51.436;5.978;2022-12-07T00:47:43;36.88;35.96;37.87;;
67320;Laerm;57665;51.436;5.978;2022-12-07T00:47:53;36.91;35.81;40.10;;
67320;Laerm;57665;51.436;5.978;2022-12-07T00:48:04;36.91;35.72;38.34;;
67320;Laerm;57665;51.436;5.978;2022-12-07T00:48:14;37.05;35.64;40.54;;
67320;Laerm;57665;51.436;5.978;2022-12-07T00:48:24;37.25;35.85;39.84;;
67320;Laerm;57665;51.436;5.978;2022-12-07T00:48:35;36.92;35.78;38.00;;
67320;Laerm;57665;51.436;5.978;2022-12-07T00:48:45;36.92;35.94;38.04;;
67320;Laerm;57665;51.436;5.978;2022-12-07T00:48:56;36.92;36.07;37.88;;
67320;Laerm;57665;51.436;5.978;2022-12-07T00:49:06;36.90;36.05;37.62;;
67320;Laerm;57665;51.436;5.978;2022-12-07T00:49:16;36.80;35.93;37.55;;
67320;Laerm;57665;51.436;5.978;2022-12-07T00:49:26;36.77;35.90;37.65;;
67320;Laerm;57665;51.436;5.978;2022-12-07T00:49:36;36.80;35.62;37.60;;
67320;Laerm;57665;51.436;5.978;2022-12-07T00:49:47;36.81;35.78;37.69;;
67320;Laerm;57665;51.436;5.978;2022-12-07T00:49:57;36.79;35.69;37.71;;
67320;Laerm;57665;51.436;5.978;2022-12-07T00:50:07;36.91;35.78;37.81;;
67320;Laerm;57665;51.436;5.978;2022-12-07T00:50:18;36.90;35.86;37.79;;
67320;Laerm;57665;51.436;5.978;2022-12-07T00:50:28;36.93;36.09;37.84;;
67320;Laerm;57665;51.436;5.978;2022-12-07T00:50:38;36.91;35.85;37.67;;
67320;Laerm;57665;51.436;5.978;2022-12-07T00:50:48;36.96;35.82;37.91;;
67320;Laerm;57665;51.436;5.978;2022-12-07T00:50:59;36.99;35.70;37.74;;
67320;Laerm;57665;51.436;5.978;2022-12-07T00:51:10;37.09;36.25;38.12;;
67320;Laerm;57665;51.436;5.978;2022-12-07T00:51:21;37.09;36.28;38.09;;
67320;Laerm;57665;51.436;5.978;2022-12-07T00:51:32;37.13;36.26;38.08;;
67320;Laerm;57665;51.436;5.978;2022-12-07T00:51:42;37.25;36.14;38.19;;
67320;Laerm;57665;51.436;5.978;2022-12-07T00:51:52;37.37;36.34;38.57;;
67320;Laerm;57665;51.436;5.978;2022-12-07T00:52:03;37.52;36.25;38.34;;
67320;Laerm;57665;51.436;5.978;2022-12-07T00:52:13;37.53;36.50;38.29;;
67320;Laerm;57665;51.436;5.978;2022-12-07T00:52:23;37.51;36.75;38.44;;
67320;Laerm;57665;51.436;5.978;2022-12-07T00:52:33;37.39;36.35;38.37;;
67320;Laerm;57665;51.436;5.978;2022-12-07T00:52:44;37.40;36.54;38.20;;
67320;Laerm;57665;51.436;5.978;2022-12-07T00:52:54;37.14;35.97;38.09;;
67320;Laerm;57665;51.436;5.978;2022-12-07T00:53:04;37.01;35.98;38.12;;
67320;Laerm;57665;51.436;5.978;2022-12-07T00:53:14;37.01;35.95;37.96;;
67320;Laerm;57665;51.436;5.978;2022-12-07T00:53:25;37.01;35.87;38.12;;
67320;Laerm;57665;51.436;5.978;2022-12-07T00:53:35;36.99;35.99;38.19;;
67320;Laerm;57665;51.436;5.978;2022-12-07T00:53:46;37.08;36.07;38.28;;
67320;Laerm;57665;51.436;5.978;2022-12-07T00:53:56;37.08;36.12;37.93;;
67320;Laerm;57665;51.436;5.978;2022-12-07T00:54:06;37.06;35.82;37.91;;
67320;Laerm;57665;51.436;5.978;2022-12-07T00:54:17;37.07;36.05;38.02;;
67320;Laerm;57665;51.436;5.978;2022-12-07T00:54:27;36.96;35.92;37.85;;
67320;Laerm;57665;51.436;5.978;2022-12-07T00:54:37;37.07;35.65;38.34;;
67320;Laerm;57665;51.436;5.978;2022-12-07T00:54:47;37.29;36.18;38.86;;
67320;Laerm;57665;51.436;5.978;2022-12-07T00:54:58;37.34;36.46;38.39;;
67320;Laerm;57665;51.436;5.978;2022-12-07T00:55:08;37.40;36.59;39.73;;
67320;Laerm;57665;51.436;5.978;2022-12-07T00:55:18;37.61;36.57;38.75;;
67320;Laerm;57665;51.436;5.978;2022-12-07T00:55:32;37.68;36.45;38.93;;
67320;Laerm;57665;51.436;5.978;2022-12-07T00:55:43;36.99;36.04;38.09;;
67320;Laerm;57665;51.436;5.978;2022-12-07T00:55:54;36.82;35.77;37.92;;
67320;Laerm;57665;51.436;5.978;2022-12-07T00:56:06;36.86;36.06;37.82;;
67320;Laerm;57665;51.436;5.978;2022-12-07T00:56:18;36.87;35.75;37.54;;
67320;Laerm;57665;51.436;5.978;2022-12-07T00:56:29;36.95;36.10;37.71;;
67320;Laerm;57665;51.436;5.978;2022-12-07T00:56:39;37.07;36.16;38.11;;
67320;Laerm;57665;51.436;5.978;2022-12-07T00:56:49;37.20;36.22;38.09;;
67320;Laerm;57665;51.436;5.978;2022-12-07T00:56:59;37.22;35.98;38.06;;
67320;Laerm;57665;51.436;5.978;2022-12-07T00:57:10;37.28;36.11;38.24;;
67320;Laerm;57665;51.436;5.978;2022-12-07T00:57:20;37.12;36.27;38.04;;
67320;Laerm;57665;51.436;5.978;2022-12-07T00:57:30;37.09;35.97;38.06;;
67320;Laerm;57665;51.436;5.978;2022-12-07T00:57:40;37.04;35.90;38.03;;
67320;Laerm;57665;51.436;5.978;2022-12-07T00:57:51;37.09;36.12;38.24;;
67320;Laerm;57665;51.436;5.978;2022-12-07T00:58:01;37.05;35.91;38.10;;
67320;Laerm;57665;51.436;5.978;2022-12-07T00:58:11;37.01;35.84;37.96;;
67320;Laerm;57665;51.436;5.978;2022-12-07T00:58:22;37.04;36.18;37.95;;
67320;Laerm;57665;51.436;5.978;2022-12-07T00:58:32;37.03;35.99;37.83;;
67320;Laerm;57665;51.436;5.978;2022-12-07T00:58:42;37.00;36.00;38.02;;
67320;Laerm;57665;51.436;5.978;2022-12-07T00:58:53;36.88;35.93;37.68;;
67320;Laerm;57665;51.436;5.978;2022-12-07T00:59:05;36.95;36.02;37.74;;
67320;Laerm;57665;51.436;5.978;2022-12-07T00:59:15;37.09;35.90;38.07;;
67320;Laerm;57665;51.436;5.978;2022-12-07T00:59:26;37.22;35.97;37.89;;
67320;Laerm;57665;51.436;5.978;2022-12-07T00:59:36;37.37;36.38;38.42;;
67320;Laerm;57665;51.436;5.978;2022-12-07T00:59:46;37.48;36.32;38.34;;
67320;Laerm;57665;51.436;5.978;2022-12-07T00:59:56;37.47;36.29;38.55;;
67320;Laerm;57665;51.436;5.978;2022-12-07T01:00:07;36.84;36.03;37.88;;